Time;durP1;ratioP1;P1;durP2;ratioP2;P2;SDS_P1;SDS_P2;PMS_P1;PMS_P2;Temp;Humidity;BMP_temperature;BMP_pressure;BME280_temperature;BME280_humidity;BME280_pressure;Samples;Min_cycle;Max_cycle;Signal;HPM_P1;HPM_P2
2023/07/08 00:00:44;;;;;;;5.85;3.08;;;;;;;;;;5054435;28;20364;-73
2023/07/08 00:03:14;;;;;;;5.35;3.63;;;;;;;;;;5021698;28;20313;-73
2023/07/08 00:05:42;;;;;;;3.63;3.10;;;;;;;;;;5035531;28;20222;-73
2023/07/08 00:08:18;;;;;;;3.55;3.20;;;;;;;;;;5037116;28;20211;-72
2023/07/08 00:10:46;;;;;;;4.47;3.53;;;;;;;;;;5053097;28;20235;-73
2023/07/08 00:13:12;;;;;;;5.10;2.95;;;;;;;;;;5060735;28;20699;-73
2023/07/08 00:15:37;;;;;;;3.35;3.08;;;;;;;;;;5063183;28;20218;-72
2023/07/08 00:18:14;;;;;;;3.80;3.50;;;;;;;;;;5035867;28;20317;-74
2023/07/08 00:20:46;;;;;;;4.65;3.10;;;;;;;;;;5063368;28;20214;-72
2023/07/08 00:23:12;;;;;;;4.57;3.13;;;;;;;;;;5045808;28;20225;-73
2023/07/08 00:25:42;;;;;;;4.40;3.00;;;;;;;;;;5036498;28;20230;-72
2023/07/08 00:28:23;;;;;;;4.63;3.00;;;;;;;;;;5050568;28;20683;-73
2023/07/08 00:30:52;;;;;;;3.28;2.97;;;;;;;;;;5051312;28;20618;-72
2023/07/08 00:33:18;;;;;;;3.33;3.00;;;;;;;;;;5032787;28;20303;-72
2023/07/08 00:35:44;;;;;;;3.67;3.38;;;;;;;;;;5036143;28;20473;-73
2023/07/08 00:38:14;;;;;;;7.53;3.33;;;;;;;;;;5020772;28;20223;-73
2023/07/08 00:40:50;;;;;;;5.38;3.08;;;;;;;;;;5067872;28;20675;-74
2023/07/08 00:43:15;;;;;;;3.80;3.20;;;;;;;;;;5061971;28;20668;-73
2023/07/08 00:45:46;;;;;;;5.18;3.13;;;;;;;;;;5020781;28;20210;-73
2023/07/08 00:48:25;;;;;;;4.07;3.33;;;;;;;;;;5035820;28;20305;-72
2023/07/08 00:50:51;;;;;;;6.35;3.55;;;;;;;;;;5053767;28;20245;-74
2023/07/08 00:53:29;;;;;;;5.03;3.10;;;;;;;;;;5036863;28;20713;-74
2023/07/08 00:56:07;;;;;;;5.57;3.17;;;;;;;;;;5043304;28;20973;-74
2023/07/08 00:58:34;;;;;;;4.65;3.17;;;;;;;;;;5019463;28;20233;-74
2023/07/08 01:01:00;;;;;;;3.78;3.20;;;;;;;;;;5036772;28;20687;-72
2023/07/08 01:03:27;;;;;;;4.15;3.75;;;;;;;;;;5035239;28;20268;-73
2023/07/08 01:05:56;;;;;;;3.88;3.38;;;;;;;;;;5051668;28;20260;-73
2023/07/08 01:08:28;;;;;;;4.70;3.17;;;;;;;;;;5045226;28;20237;-73
2023/07/08 01:10:57;;;;;;;8.05;3.20;;;;;;;;;;5021514;28;20227;-73
2023/07/08 01:13:25;;;;;;;4.30;3.40;;;;;;;;;;5042420;28;20585;-73
2023/07/08 01:15:53;;;;;;;4.05;3.28;;;;;;;;;;5045872;28;20214;-73
2023/07/08 01:18:24;;;;;;;4.38;3.00;;;;;;;;;;5034179;28;20217;-73
2023/07/08 01:20:55;;;;;;;3.88;3.05;;;;;;;;;;5035171;28;20226;-73
2023/07/08 01:23:26;;;;;;;4.10;3.35;;;;;;;;;;5028929;28;20271;-73
2023/07/08 01:25:51;;;;;;;5.60;3.20;;;;;;;;;;5058386;28;20223;-74
2023/07/08 01:28:19;;;;;;;5.72;3.35;;;;;;;;;;5035093;28;20226;-72
2023/07/08 01:30:47;;;;;;;5.95;3.40;;;;;;;;;;5033089;28;20234;-72
2023/07/08 01:33:24;;;;;;;5.13;3.40;;;;;;;;;;5062447;28;20222;-73
2023/07/08 01:35:51;;;;;;;3.70;2.70;;;;;;;;;;5009785;28;20237;-74
2023/07/08 01:38:23;;;;;;;4.00;2.97;;;;;;;;;;5030497;28;20695;-72
2023/07/08 01:40:59;;;;;;;3.83;2.95;;;;;;;;;;5036534;28;20320;-75
2023/07/08 01:43:32;;;;;;;3.92;3.20;;;;;;;;;;5033687;28;20213;-73
2023/07/08 01:46:00;;;;;;;3.60;2.88;;;;;;;;;;5036400;28;20223;-74
2023/07/08 01:48:26;;;;;;;4.75;3.25;;;;;;;;;;5046557;28;20210;-73
2023/07/08 01:50:56;;;;;;;5.03;3.05;;;;;;;;;;5032481;28;20715;-73
2023/07/08 01:53:29;;;;;;;4.85;3.50;;;;;;;;;;5028201;28;20220;-73
2023/07/08 01:55:54;;;;;;;4.60;2.92;;;;;;;;;;5048064;28;20294;-72
2023/07/08 01:58:22;;;;;;;4.13;3.05;;;;;;;;;;5046570;28;20210;-73
2023/07/08 02:00:50;;;;;;;4.28;3.08;;;;;;;;;;5049644;28;20214;-74
2023/07/08 02:03:18;;;;;;;3.47;3.17;;;;;;;;;;5041829;28;20229;-73
2023/07/08 02:05:47;;;;;;;3.22;2.88;;;;;;;;;;5035079;28;20214;-73
2023/07/08 02:08:15;;;;;;;4.45;3.60;;;;;;;;;;5030261;28;20803;-73
2023/07/08 02:10:45;;;;;;;6.60;3.25;;;;;;;;;;5047028;28;20711;-74
2023/07/08 02:13:17;;;;;;;5.03;3.20;;;;;;;;;;5035041;28;20699;-73
2023/07/08 02:15:51;;;;;;;4.88;3.25;;;;;;;;;;5033507;28;20254;-74
2023/07/08 02:18:19;;;;;;;4.15;3.10;;;;;;;;;;5017294;28;20214;-75
2023/07/08 02:20:47;;;;;;;3.60;3.30;;;;;;;;;;5064271;28;20241;-72
2023/07/08 02:23:14;;;;;;;5.03;3.63;;;;;;;;;;5045652;28;20214;-73
2023/07/08 02:25:49;;;;;;;4.00;3.13;;;;;;;;;;5047645;28;20237;-74
2023/07/08 02:28:19;;;;;;;4.50;3.63;;;;;;;;;;5030138;28;20237;-73
2023/07/08 02:30:50;;;;;;;3.40;3.10;;;;;;;;;;5031327;28;20300;-73
2023/07/08 02:33:17;;;;;;;3.72;3.10;;;;;;;;;;5023632;28;20227;-74
2023/07/08 02:35:43;;;;;;;4.38;3.30;;;;;;;;;;5045768;28;20203;-74
2023/07/08 02:38:08;;;;;;;6.32;2.92;;;;;;;;;;5032681;28;20206;-74
2023/07/08 02:40:36;;;;;;;5.68;3.10;;;;;;;;;;5033308;28;20207;-74
2023/07/08 02:43:01;;;;;;;3.90;3.08;;;;;;;;;;5033807;28;20210;-74
2023/07/08 02:45:27;;;;;;;4.35;3.35;;;;;;;;;;5058562;28;20240;-72
2023/07/08 02:47:55;;;;;;;3.45;3.10;;;;;;;;;;5052033;28;20624;-73
2023/07/08 02:50:24;;;;;;;3.97;3.58;;;;;;;;;;5037728;28;20230;-72
2023/07/08 02:52:52;;;;;;;4.00;3.03;;;;;;;;;;5040127;28;20245;-72
2023/07/08 02:55:21;;;;;;;3.42;3.13;;;;;;;;;;5046233;28;20752;-72
2023/07/08 02:57:46;;;;;;;5.72;3.83;;;;;;;;;;5048967;28;20210;-73
2023/07/08 03:00:13;;;;;;;3.45;3.13;;;;;;;;;;5038277;28;20694;-73
2023/07/08 03:02:39;;;;;;;3.42;3.13;;;;;;;;;;5038362;28;20219;-73
2023/07/08 03:05:09;;;;;;;3.80;3.50;;;;;;;;;;5046913;28;20749;-73
2023/07/08 03:07:37;;;;;;;12.70;3.42;;;;;;;;;;5081041;28;20624;-73
2023/07/08 03:10:40;;;;;;;3.60;3.30;;;;;;;;;;5038977;28;20218;-74
2023/07/08 03:13:31;;;;;;;3.85;3.53;;;;;;;;;;5049298;28;20221;-73
2023/07/08 03:15:58;;;;;;;7.43;3.38;;;;;;;;;;5055614;28;20220;-73
2023/07/08 03:19:07;;;;;;;4.85;3.50;;;;;;;;;;5055968;28;20726;-73
2023/07/08 03:22:10;;;;;;;4.93;3.38;;;;;;;;;;5070848;28;20625;-73
2023/07/08 03:24:45;;;;;;;5.97;3.83;;;;;;;;;;5057851;28;20222;-73
2023/07/08 03:27:35;;;;;;;4.57;3.58;;;;;;;;;;5067691;28;20210;-73
2023/07/08 03:30:26;;;;;;;3.78;3.30;;;;;;;;;;5031834;28;20778;-72
2023/07/08 03:32:59;;;;;;;4.05;3.65;;;;;;;;;;5068538;28;20215;-72
2023/07/08 03:35:47;;;;;;;3.88;3.53;;;;;;;;;;5053695;28;20248;-72
2023/07/08 03:42:11;;;;;;;3.92;3.53;;;;;;;;;;5078742;28;20237;-73
2023/07/08 03:44:57;;;;;;;3.88;3.13;;;;;;;;;;5055371;28;20206;-73
2023/07/08 03:47:24;;;;;;;4.72;3.30;;;;;;;;;;5052631;28;20336;-73
2023/07/08 03:50:17;;;;;;;5.07;3.55;;;;;;;;;;5030645;28;20249;-72
2023/07/08 03:53:09;;;;;;;6.82;3.47;;;;;;;;;;5053513;28;20219;-73
2023/07/08 03:55:55;;;;;;;3.40;3.10;;;;;;;;;;5047144;28;20668;-73
2023/07/08 03:58:45;;;;;;;5.18;3.33;;;;;;;;;;5057112;28;20641;-72
2023/07/08 04:02:03;;;;;;;3.60;3.30;;;;;;;;;;5051328;28;20221;-73
2023/07/08 04:04:50;;;;;;;4.47;3.20;;;;;;;;;;5061330;28;20218;-72
2023/07/08 04:07:47;;;;;;;5.13;3.40;;;;;;;;;;5047063;28;20215;-76
2023/07/08 04:13:59;;;;;;;3.88;3.40;;;;;;;;;;5081406;28;20252;-73
2023/07/08 04:16:54;;;;;;;4.20;3.80;;;;;;;;;;5046229;28;20227;-73
2023/07/08 04:19:50;;;;;;;3.63;3.33;;;;;;;;;;5045021;28;20218;-73
2023/07/08 04:22:41;;;;;;;3.42;3.13;;;;;;;;;;5078784;28;20696;-73
2023/07/08 04:28:34;;;;;;;3.50;3.20;;;;;;;;;;4980860;28;20324;-74
2023/07/08 04:31:46;;;;;;;3.60;3.25;;;;;;;;;;4897340;29;20710;-74
2023/07/08 04:34:37;;;;;;;4.60;3.58;;;;;;;;;;5002572;28;20606;-73
2023/07/08 04:37:14;;;;;;;5.03;3.20;;;;;;;;;;4974645;28;20213;-73
2023/07/08 04:43:39;;;;;;;4.75;3.03;;;;;;;;;;4973428;28;20228;-73
2023/07/08 04:46:05;;;;;;;4.80;3.22;;;;;;;;;;4988605;28;20217;-74
2023/07/08 04:48:55;;;;;;;3.88;3.47;;;;;;;;;;4994266;28;20220;-74
2023/07/08 04:52:07;;;;;;;3.78;3.35;;;;;;;;;;4991108;28;20225;-73
2023/07/08 04:54:35;;;;;;;3.30;3.05;;;;;;;;;;5080784;28;20348;-73
2023/07/08 04:57:10;;;;;;;5.18;3.15;;;;;;;;;;5067661;28;20210;-73
2023/07/08 05:03:30;;;;;;;5.38;3.00;;;;;;;;;;5028948;28;20262;-85
2023/07/08 05:06:41;;;;;;;5.82;3.30;;;;;;;;;;4992966;28;20241;-87
2023/07/08 05:09:10;;;;;;;4.72;3.22;;;;;;;;;;5006606;28;20220;-83
2023/07/08 05:11:35;;;;;;;3.67;3.33;;;;;;;;;;5003907;28;20331;-87
2023/07/08 05:14:30;;;;;;;4.22;3.25;;;;;;;;;;5011131;28;20251;-86
2023/07/08 05:17:05;;;;;;;5.88;3.30;;;;;;;;;;4968492;28;20232;-88
2023/07/08 05:19:57;;;;;;;3.42;2.92;;;;;;;;;;4989167;28;20219;-86
2023/07/08 05:23:12;;;;;;;4.25;3.50;;;;;;;;;;5041292;28;20226;-86
2023/07/08 05:25:47;;;;;;;2.95;2.75;;;;;;;;;;5020164;28;20222;-87
2023/07/08 05:28:23;;;;;;;3.38;3.08;;;;;;;;;;5061301;28;20242;-86
2023/07/08 05:34:57;;;;;;;3.55;3.25;;;;;;;;;;5107423;28;20217;-87
2023/07/08 05:37:25;;;;;;;5.75;3.05;;;;;;;;;;5056583;28;20221;-86
2023/07/08 05:39:54;;;;;;;7.43;3.30;;;;;;;;;;5059620;28;20221;-85
2023/07/08 05:42:20;;;;;;;3.40;3.10;;;;;;;;;;5036699;28;20219;-85
2023/07/08 05:44:48;;;;;;;4.78;2.90;;;;;;;;;;5038396;28;20222;-87
2023/07/08 05:47:16;;;;;;;3.70;3.40;;;;;;;;;;5057200;28;20244;-86
2023/07/08 05:53:28;;;;;;;3.25;2.95;;;;;;;;;;5108387;28;20307;-88
2023/07/08 05:55:56;;;;;;;3.90;3.10;;;;;;;;;;5082948;28;20321;-86
2023/07/08 05:58:22;;;;;;;4.72;3.00;;;;;;;;;;5059437;28;20665;-85
2023/07/08 06:00:47;;;;;;;4.68;3.05;;;;;;;;;;5071599;28;20214;-86
2023/07/08 06:03:13;;;;;;;3.35;3.05;;;;;;;;;;5059391;28;20648;-86
2023/07/08 06:05:39;;;;;;;3.88;3.10;;;;;;;;;;5030478;28;20472;-86
2023/07/08 06:08:09;;;;;;;3.60;3.25;;;;;;;;;;5057132;28;20217;-87
2023/07/08 06:10:34;;;;;;;4.00;2.55;;;;;;;;;;5057057;28;20251;-84
2023/07/08 06:13:00;;;;;;;3.05;2.85;;;;;;;;;;5070168;28;20218;-83
2023/07/08 06:15:25;;;;;;;3.85;2.72;;;;;;;;;;5054034;28;20205;-87
2023/07/08 06:17:51;;;;;;;3.05;2.85;;;;;;;;;;5037077;28;20221;-87
2023/07/08 06:20:16;;;;;;;3.03;2.70;;;;;;;;;;5051161;28;20229;-87
2023/07/08 06:22:42;;;;;;;3.25;2.95;;;;;;;;;;5028065;28;20695;-84
2023/07/08 06:25:08;;;;;;;5.03;3.10;;;;;;;;;;5045004;28;20250;-87
2023/07/08 06:27:33;;;;;;;4.78;2.72;;;;;;;;;;5040833;28;20221;-86
2023/07/08 06:30:01;;;;;;;3.92;2.70;;;;;;;;;;5066079;28;20243;-86
2023/07/08 06:32:26;;;;;;;3.15;2.53;;;;;;;;;;5042461;28;20226;-84
2023/07/08 06:34:52;;;;;;;2.97;2.67;;;;;;;;;;5061008;28;20214;-84
2023/07/08 06:37:23;;;;;;;2.97;2.70;;;;;;;;;;5056389;28;20280;-82
2023/07/08 06:39:48;;;;;;;2.58;2.38;;;;;;;;;;5055779;28;20249;-83
2023/07/08 06:42:14;;;;;;;3.65;2.78;;;;;;;;;;5060203;28;20258;-81
2023/07/08 06:44:50;;;;;;;3.53;2.50;;;;;;;;;;5057318;28;20224;-82
2023/07/08 06:47:21;;;;;;;3.10;2.38;;;;;;;;;;5045191;28;20267;-86
2023/07/08 06:49:47;;;;;;;3.83;2.63;;;;;;;;;;5055081;28;20317;-85
2023/07/08 06:52:15;;;;;;;3.53;2.65;;;;;;;;;;5065562;28;20331;-84
2023/07/08 06:54:41;;;;;;;3.05;2.75;;;;;;;;;;5049058;28;20241;-83
2023/07/08 06:57:08;;;;;;;2.60;2.40;;;;;;;;;;5046139;28;20273;-84
2023/07/08 06:59:34;;;;;;;2.95;2.75;;;;;;;;;;5065455;28;20236;-84
2023/07/08 07:02:00;;;;;;;2.60;2.40;;;;;;;;;;5060044;28;20210;-83
2023/07/08 07:04:25;;;;;;;5.30;2.58;;;;;;;;;;5087049;28;20226;-84
2023/07/08 07:06:51;;;;;;;2.92;2.63;;;;;;;;;;5071503;28;20239;-85
2023/07/08 07:09:16;;;;;;;3.65;2.80;;;;;;;;;;5056780;28;20226;-83
2023/07/08 07:11:42;;;;;;;2.83;2.50;;;;;;;;;;5069089;28;20237;-85
2023/07/08 07:14:09;;;;;;;2.65;2.45;;;;;;;;;;5062924;28;20599;-84
2023/07/08 07:16:37;;;;;;;3.20;2.65;;;;;;;;;;5061178;28;20629;-86
2023/07/08 07:19:06;;;;;;;2.90;2.70;;;;;;;;;;5060221;28;20279;-84
2023/07/08 07:21:31;;;;;;;2.90;2.60;;;;;;;;;;5062286;28;20269;-86
2023/07/08 07:23:59;;;;;;;2.80;2.60;;;;;;;;;;5061523;28;20745;-85
2023/07/08 07:26:27;;;;;;;6.88;3.42;;;;;;;;;;5036517;28;20650;-85
2023/07/08 07:28:54;;;;;;;4.50;2.80;;;;;;;;;;5043687;28;20270;-86
2023/07/08 07:31:20;;;;;;;4.47;2.53;;;;;;;;;;5058691;28;20210;-85
2023/07/08 07:33:45;;;;;;;2.67;2.47;;;;;;;;;;5061831;28;20634;-84
2023/07/08 07:36:11;;;;;;;2.90;2.47;;;;;;;;;;5028706;28;20833;-83
2023/07/08 07:38:36;;;;;;;2.78;2.25;;;;;;;;;;5083975;28;20217;-83
2023/07/08 07:41:06;;;;;;;3.05;2.75;;;;;;;;;;5089097;28;20305;-83
2023/07/08 07:43:33;;;;;;;3.67;3.05;;;;;;;;;;5075648;28;20248;-83
2023/07/08 07:45:59;;;;;;;4.03;2.67;;;;;;;;;;5043594;28;20293;-84
2023/07/08 07:48:25;;;;;;;2.55;2.35;;;;;;;;;;5063160;28;20245;-85
2023/07/08 07:50:51;;;;;;;5.43;3.05;;;;;;;;;;5047084;28;20221;-82
2023/07/08 07:53:17;;;;;;;3.47;2.90;;;;;;;;;;5030152;28;20268;-83
2023/07/08 07:55:45;;;;;;;6.03;2.75;;;;;;;;;;5060258;28;20674;-85
2023/07/08 07:58:13;;;;;;;2.63;2.42;;;;;;;;;;5036803;28;20234;-82
2023/07/08 08:00:39;;;;;;;2.88;2.25;;;;;;;;;;5044071;28;20339;-81
2023/07/08 08:03:05;;;;;;;3.95;2.65;;;;;;;;;;5033538;28;20301;-81
2023/07/08 08:05:30;;;;;;;3.05;2.65;;;;;;;;;;5041537;28;20222;-84
2023/07/08 08:07:58;;;;;;;3.80;2.63;;;;;;;;;;5048907;28;20213;-85
2023/07/08 08:10:28;;;;;;;2.90;2.60;;;;;;;;;;5066348;28;20753;-84
2023/07/08 08:12:56;;;;;;;3.08;2.75;;;;;;;;;;5061913;28;20317;-84
2023/07/08 08:15:22;;;;;;;2.90;2.65;;;;;;;;;;5045097;28;25023;-83
2023/07/08 08:17:51;;;;;;;3.47;2.88;;;;;;;;;;5058531;28;20218;-86
2023/07/08 08:20:24;;;;;;;4.70;3.00;;;;;;;;;;5068116;28;20313;-83
2023/07/08 08:22:50;;;;;;;3.35;2.67;;;;;;;;;;5069726;28;20233;-83
2023/07/08 08:25:19;;;;;;;2.95;2.75;;;;;;;;;;5055010;28;20850;-83
2023/07/08 08:27:45;;;;;;;5.28;2.90;;;;;;;;;;5021673;28;20288;-84
2023/07/08 08:30:11;;;;;;;2.60;2.40;;;;;;;;;;5032833;28;20222;-82
2023/07/08 08:32:36;;;;;;;3.17;2.80;;;;;;;;;;5044267;28;20230;-82
2023/07/08 08:35:05;;;;;;;3.08;2.47;;;;;;;;;;5033615;28;20245;-82
2023/07/08 08:37:30;;;;;;;4.15;2.63;;;;;;;;;;5041892;28;20222;-83
2023/07/08 08:39:59;;;;;;;3.60;2.92;;;;;;;;;;5035415;28;20241;-83
2023/07/08 08:42:41;;;;;;;3.35;2.67;;;;;;;;;;5069301;28;20274;-82
2023/07/08 08:45:08;;;;;;;4.05;2.78;;;;;;;;;;5058001;28;20292;-83
2023/07/08 08:48:00;;;;;;;4.75;2.97;;;;;;;;;;5073463;28;20217;-83
2023/07/08 08:50:38;;;;;;;3.63;2.50;;;;;;;;;;5099134;28;20226;-82
2023/07/08 08:53:08;;;;;;;3.70;2.85;;;;;;;;;;5044124;28;20320;-80
2023/07/08 08:55:38;;;;;;;2.83;2.45;;;;;;;;;;5049728;28;20233;-84
2023/07/08 08:58:07;;;;;;;3.83;2.90;;;;;;;;;;5066834;28;20534;-84
2023/07/08 09:00:54;;;;;;;5.55;2.35;;;;;;;;;;5080833;28;20225;-82
2023/07/08 09:03:37;;;;;;;3.03;2.65;;;;;;;;;;5066820;28;20221;-83
2023/07/08 09:06:12;;;;;;;3.25;2.58;;;;;;;;;;5071345;28;20246;-84
2023/07/08 09:08:40;;;;;;;3.45;2.60;;;;;;;;;;5087821;28;20304;-82
2023/07/08 09:11:14;;;;;;;2.63;2.42;;;;;;;;;;5059780;28;20218;-84
2023/07/08 09:13:40;;;;;;;3.35;2.63;;;;;;;;;;5073189;28;20234;-83
2023/07/08 09:16:30;;;;;;;2.83;2.63;;;;;;;;;;5054408;28;20215;-84
2023/07/08 09:19:09;;;;;;;3.15;2.65;;;;;;;;;;5059973;28;20228;-82
2023/07/08 09:21:46;;;;;;;3.45;2.72;;;;;;;;;;5061738;28;20280;-85
2023/07/08 09:24:45;;;;;;;2.65;2.45;;;;;;;;;;5064481;28;20292;-86
2023/07/08 09:27:11;;;;;;;2.70;2.50;;;;;;;;;;5066246;28;20222;-83
2023/07/08 09:29:37;;;;;;;6.35;2.50;;;;;;;;;;5054823;28;20250;-85
2023/07/08 09:32:15;;;;;;;3.13;2.85;;;;;;;;;;5049850;28;20709;-87
2023/07/08 09:34:44;;;;;;;4.53;2.42;;;;;;;;;;5078324;28;20225;-85
2023/07/08 09:37:26;;;;;;;2.78;2.30;;;;;;;;;;5059648;28;20210;-83
2023/07/08 09:39:53;;;;;;;2.92;2.63;;;;;;;;;;5071763;28;20225;-86
2023/07/08 09:42:18;;;;;;;3.00;2.50;;;;;;;;;;5058809;28;20741;-86
2023/07/08 09:44:45;;;;;;;2.92;2.63;;;;;;;;;;5090054;28;20234;-83
2023/07/08 09:47:22;;;;;;;9.10;3.13;;;;;;;;;;5073363;28;20229;-85
2023/07/08 09:49:47;;;;;;;2.60;2.40;;;;;;;;;;5070883;28;20247;-85
2023/07/08 09:52:13;;;;;;;3.38;2.92;;;;;;;;;;5060118;28;20217;-85
2023/07/08 09:54:43;;;;;;;2.75;2.50;;;;;;;;;;5034272;28;20225;-85
2023/07/08 09:57:24;;;;;;;3.70;2.65;;;;;;;;;;5053128;28;20233;-82
2023/07/08 09:59:55;;;;;;;2.70;2.50;;;;;;;;;;5042776;28;20646;-88
2023/07/08 10:02:30;;;;;;;2.80;2.60;;;;;;;;;;5054241;28;20206;-85
2023/07/08 10:04:58;;;;;;;3.00;2.80;;;;;;;;;;5085086;28;20225;-83
2023/07/08 10:07:26;;;;;;;2.90;2.70;;;;;;;;;;5053143;28;20218;-86
2023/07/08 10:09:53;;;;;;;3.08;2.78;;;;;;;;;;5043400;28;20240;-86
2023/07/08 10:12:19;;;;;;;3.30;2.95;;;;;;;;;;5072488;28;20230;-85
2023/07/08 10:14:50;;;;;;;3.45;3.10;;;;;;;;;;5056690;28;20237;-84
2023/07/08 10:17:16;;;;;;;3.33;2.70;;;;;;;;;;5047895;28;20225;-84
2023/07/08 10:19:42;;;;;;;3.10;2.80;;;;;;;;;;5058054;28;20228;-85
2023/07/08 10:22:31;;;;;;;4.03;3.00;;;;;;;;;;5037611;28;20206;-85
2023/07/08 10:25:15;;;;;;;3.08;2.78;;;;;;;;;;5051900;28;20275;-86
2023/07/08 10:28:12;;;;;;;4.07;2.65;;;;;;;;;;5108252;28;20221;-86
2023/07/08 10:30:53;;;;;;;3.63;3.17;;;;;;;;;;5059732;28;20252;-85
2023/07/08 10:33:36;;;;;;;2.78;2.58;;;;;;;;;;5070246;28;20225;-86
2023/07/08 10:36:22;;;;;;;3.13;2.80;;;;;;;;;;5083890;28;20281;-85
2023/07/08 10:38:47;;;;;;;2.88;2.60;;;;;;;;;;5042795;28;20224;-84
2023/07/08 10:41:21;;;;;;;3.17;2.80;;;;;;;;;;5075758;28;20320;-85
2023/07/08 10:44:05;;;;;;;4.15;2.80;;;;;;;;;;5058425;28;20287;-85
2023/07/08 10:46:47;;;;;;;6.45;2.72;;;;;;;;;;5058109;28;20225;-85
2023/07/08 10:49:28;;;;;;;2.95;2.70;;;;;;;;;;5058444;28;20221;-84
2023/07/08 10:52:17;;;;;;;5.32;2.97;;;;;;;;;;5044254;28;20226;-84
2023/07/08 10:54:43;;;;;;;3.17;2.88;;;;;;;;;;5039344;28;20219;-82
2023/07/08 10:57:33;;;;;;;6.13;2.95;;;;;;;;;;5117661;28;20231;-79
2023/07/08 11:00:17;;;;;;;3.10;2.90;;;;;;;;;;5094365;28;20210;-84
2023/07/08 11:03:18;;;;;;;2.92;2.63;;;;;;;;;;5102000;28;20220;-83
2023/07/08 11:05:46;;;;;;;3.28;2.97;;;;;;;;;;5077656;28;20267;-85
2023/07/08 11:08:19;;;;;;;3.17;2.88;;;;;;;;;;5056022;28;20230;-86
2023/07/08 11:11:05;;;;;;;3.05;2.78;;;;;;;;;;5092502;28;20247;-86
2023/07/08 11:13:30;;;;;;;3.42;2.97;;;;;;;;;;5056952;28;20682;-84
2023/07/08 11:16:01;;;;;;;3.72;3.03;;;;;;;;;;5059223;28;20278;-86
2023/07/08 11:18:33;;;;;;;3.30;2.72;;;;;;;;;;5085936;28;20224;-86
2023/07/08 11:21:21;;;;;;;3.80;2.92;;;;;;;;;;5077108;28;20305;-86
2023/07/08 11:24:26;;;;;;;6.55;3.00;;;;;;;;;;5078116;28;20222;-87
2023/07/08 11:27:00;;;;;;;3.88;3.08;;;;;;;;;;5058555;28;20236;-86
2023/07/08 11:29:37;;;;;;;2.75;2.55;;;;;;;;;;5078089;28;20278;-87
2023/07/08 11:32:04;;;;;;;4.60;2.70;;;;;;;;;;5046492;28;20674;-86
2023/07/08 11:34:33;;;;;;;3.35;2.90;;;;;;;;;;5059393;28;20305;-86
2023/07/08 11:37:00;;;;;;;6.07;2.90;;;;;;;;;;5044628;28;20734;-85
2023/07/08 11:39:34;;;;;;;4.07;2.67;;;;;;;;;;5026193;28;20225;-85
2023/07/08 11:42:11;;;;;;;3.22;3.03;;;;;;;;;;5059170;28;20210;-86
2023/07/08 11:44:42;;;;;;;3.17;2.85;;;;;;;;;;5046834;28;20245;-82
2023/07/08 11:47:15;;;;;;;5.30;3.30;;;;;;;;;;5042843;28;20249;-85
2023/07/08 11:49:43;;;;;;;3.15;2.85;;;;;;;;;;5057707;28;20222;-81
2023/07/08 11:52:16;;;;;;;3.33;3.03;;;;;;;;;;5069208;28;20238;-81
2023/07/08 11:54:48;;;;;;;3.60;3.30;;;;;;;;;;5080230;28;20231;-84
2023/07/08 11:57:18;;;;;;;3.35;3.05;;;;;;;;;;5070098;28;20304;-84
2023/07/08 11:59:45;;;;;;;3.05;2.75;;;;;;;;;;5067410;28;20698;-82
2023/07/08 12:02:18;;;;;;;3.47;3.08;;;;;;;;;;5076379;28;20213;-83
2023/07/08 12:04:57;;;;;;;3.28;2.97;;;;;;;;;;5085590;28;21316;-84
2023/07/08 12:07:43;;;;;;;4.10;2.90;;;;;;;;;;5078780;28;20241;-85
2023/07/08 12:10:22;;;;;;;3.58;3.25;;;;;;;;;;5039563;28;20229;-83
2023/07/08 12:12:48;;;;;;;3.35;3.05;;;;;;;;;;5064355;28;20236;-86
2023/07/08 12:15:30;;;;;;;3.20;2.90;;;;;;;;;;5046752;28;20218;-84
2023/07/08 12:18:11;;;;;;;4.03;3.33;;;;;;;;;;5077083;28;20219;-84
2023/07/08 12:20:42;;;;;;;4.07;3.20;;;;;;;;;;5041653;28;20219;-84
2023/07/08 12:23:15;;;;;;;3.88;3.38;;;;;;;;;;5033594;28;20227;-85
2023/07/08 12:25:43;;;;;;;3.83;3.42;;;;;;;;;;5044148;28;20222;-83
2023/07/08 12:28:09;;;;;;;3.65;3.17;;;;;;;;;;5061455;28;20762;-85
2023/07/08 12:30:35;;;;;;;3.33;3.08;;;;;;;;;;5078802;27;20237;-84
2023/07/08 12:33:00;;;;;;;3.53;3.22;;;;;;;;;;5060517;28;20712;-84
2023/07/08 12:35:33;;;;;;;3.78;3.33;;;;;;;;;;5059035;27;20229;-84
2023/07/08 12:38:03;;;;;;;7.13;3.35;;;;;;;;;;5075805;28;20220;-85
2023/07/08 12:40:29;;;;;;;3.22;3.03;;;;;;;;;;5087397;28;20304;-83
2023/07/08 12:42:55;;;;;;;4.32;3.38;;;;;;;;;;5038746;28;20284;-83
2023/07/08 12:45:22;;;;;;;3.90;3.50;;;;;;;;;;5105160;28;20658;-84
2023/07/08 12:47:48;;;;;;;4.03;3.33;;;;;;;;;;5043685;28;20271;-86
2023/07/08 12:50:14;;;;;;;3.42;3.13;;;;;;;;;;5055753;28;20737;-78
2023/07/08 12:52:39;;;;;;;3.53;3.10;;;;;;;;;;5042901;28;20230;-79
2023/07/08 12:55:07;;;;;;;4.10;3.78;;;;;;;;;;5047240;28;20210;-79
2023/07/08 12:57:33;;;;;;;3.58;3.28;;;;;;;;;;5059704;28;20225;-77
2023/07/08 13:00:01;;;;;;;3.30;3.00;;;;;;;;;;5055695;28;20248;-79
2023/07/08 13:02:27;;;;;;;4.93;3.30;;;;;;;;;;5066699;28;20266;-80
2023/07/08 13:04:58;;;;;;;4.00;3.10;;;;;;;;;;5063195;28;20277;-78
2023/07/08 13:07:36;;;;;;;6.47;3.70;;;;;;;;;;5086809;28;20324;-78
2023/07/08 13:10:03;;;;;;;3.55;3.25;;;;;;;;;;5060460;28;20222;-79
2023/07/08 13:12:29;;;;;;;5.00;3.70;;;;;;;;;;5044649;28;20211;-79
2023/07/08 13:14:55;;;;;;;3.30;3.00;;;;;;;;;;5049419;28;20211;-79
2023/07/08 13:17:21;;;;;;;4.22;3.13;;;;;;;;;;5093446;28;20310;-80
2023/07/08 13:19:46;;;;;;;3.80;3.50;;;;;;;;;;5065979;28;20242;-80
2023/07/08 13:22:19;;;;;;;3.00;2.70;;;;;;;;;;5070855;28;20218;-79
2023/07/08 13:24:47;;;;;;;3.63;3.33;;;;;;;;;;5047417;28;20249;-80
2023/07/08 13:27:23;;;;;;;3.75;3.38;;;;;;;;;;5053523;28;20292;-79
2023/07/08 13:29:55;;;;;;;3.67;3.38;;;;;;;;;;5059891;28;20665;-79
2023/07/08 13:32:31;;;;;;;3.85;3.00;;;;;;;;;;5073373;28;20311;-77
2023/07/08 13:34:59;;;;;;;4.07;3.35;;;;;;;;;;5052992;28;20660;-78
2023/07/08 13:37:27;;;;;;;3.97;3.30;;;;;;;;;;5044214;28;20301;-78
2023/07/08 13:39:55;;;;;;;5.53;3.42;;;;;;;;;;5059130;28;20247;-78
2023/07/08 13:42:21;;;;;;;4.13;3.50;;;;;;;;;;5083669;28;20213;-78
2023/07/08 13:44:49;;;;;;;3.40;3.10;;;;;;;;;;5063717;28;20218;-77
2023/07/08 13:47:23;;;;;;;5.30;3.70;;;;;;;;;;5050852;28;20229;-78
2023/07/08 13:49:49;;;;;;;3.40;3.10;;;;;;;;;;5052220;28;20654;-79
2023/07/08 13:52:19;;;;;;;4.30;3.50;;;;;;;;;;5044768;28;20303;-79
2023/07/08 13:54:53;;;;;;;3.40;3.10;;;;;;;;;;5060404;28;20222;-79
2023/07/08 13:57:23;;;;;;;3.63;3.30;;;;;;;;;;5076795;28;20347;-79
2023/07/08 13:59:52;;;;;;;4.25;3.53;;;;;;;;;;5088940;28;20220;-80
2023/07/08 14:02:20;;;;;;;3.47;3.17;;;;;;;;;;5080662;28;20213;-79
2023/07/08 14:04:45;;;;;;;3.90;3.60;;;;;;;;;;5048500;28;20245;-79
2023/07/08 14:07:16;;;;;;;5.18;3.63;;;;;;;;;;5069981;28;20226;-79
2023/07/08 14:09:45;;;;;;;4.13;3.25;;;;;;;;;;5079589;28;20377;-80
2023/07/08 14:12:10;;;;;;;3.63;3.33;;;;;;;;;;5079011;28;20222;-80
2023/07/08 14:14:38;;;;;;;3.88;2.90;;;;;;;;;;5063030;28;20360;-79
2023/07/08 14:17:04;;;;;;;3.60;3.30;;;;;;;;;;5038355;28;20218;-80
2023/07/08 14:19:33;;;;;;;3.72;3.33;;;;;;;;;;5088676;28;20213;-79
2023/07/08 14:22:25;;;;;;;3.95;3.58;;;;;;;;;;5065453;28;20229;-79
2023/07/08 14:24:54;;;;;;;3.58;3.22;;;;;;;;;;5081417;28;20248;-78
2023/07/08 14:27:22;;;;;;;4.45;3.60;;;;;;;;;;5079836;28;20206;-80
2023/07/08 14:29:49;;;;;;;3.75;3.45;;;;;;;;;;5071958;28;20288;-80
2023/07/08 14:32:32;;;;;;;4.60;3.40;;;;;;;;;;5083738;27;20370;-80
2023/07/08 14:35:23;;;;;;;3.70;3.40;;;;;;;;;;5076717;27;20277;-83
2023/07/08 14:37:50;;;;;;;5.30;3.42;;;;;;;;;;5104768;28;20217;-85
2023/07/08 14:40:29;;;;;;;3.78;3.40;;;;;;;;;;5062117;28;20258;-83
2023/07/08 14:42:58;;;;;;;5.18;3.78;;;;;;;;;;5097923;27;20244;-84
2023/07/08 14:45:23;;;;;;;7.82;3.40;;;;;;;;;;5094611;28;20700;-83
2023/07/08 14:47:51;;;;;;;4.22;3.60;;;;;;;;;;5090242;28;20216;-83
2023/07/08 14:50:19;;;;;;;3.78;3.38;;;;;;;;;;5080245;27;20236;-80
2023/07/08 14:52:46;;;;;;;3.55;3.17;;;;;;;;;;5096847;27;20231;-81
2023/07/08 14:55:13;;;;;;;4.10;3.65;;;;;;;;;;5108300;27;20221;-82
2023/07/08 14:57:48;;;;;;;4.35;3.40;;;;;;;;;;5085300;28;20214;-83
2023/07/08 15:00:15;;;;;;;3.63;3.35;;;;;;;;;;5109892;27;20220;-84
2023/07/08 15:02:43;;;;;;;4.57;3.70;;;;;;;;;;5100029;27;20209;-86
2023/07/08 15:05:15;;;;;;;4.30;3.90;;;;;;;;;;5105995;27;20237;-88
2023/07/08 15:07:42;;;;;;;4.15;3.75;;;;;;;;;;5150821;27;20221;-84
2023/07/08 15:10:10;;;;;;;4.47;3.92;;;;;;;;;;5110746;27;20228;-84
2023/07/08 15:12:37;;;;;;;6.30;3.40;;;;;;;;;;5110097;27;21150;-84
2023/07/08 15:15:03;;;;;;;5.32;3.58;;;;;;;;;;5079784;27;20224;-82
2023/07/08 15:17:28;;;;;;;3.78;3.47;;;;;;;;;;5096260;27;20225;-83
2023/07/08 15:19:58;;;;;;;4.18;3.50;;;;;;;;;;5076900;28;20217;-85
2023/07/08 15:22:26;;;;;;;4.05;3.10;;;;;;;;;;5075183;27;20213;-84
2023/07/08 15:24:53;;;;;;;4.38;3.70;;;;;;;;;;5091579;27;20225;-83
2023/07/08 15:27:22;;;;;;;4.28;3.53;;;;;;;;;;5092216;27;20227;-84
2023/07/08 23:41:37;;;;;;;6.50;4.45;;;;;;;;;;5039839;28;20222;-77
2023/07/08 23:44:02;;;;;;;4.88;4.22;;;;;;;;;;5032807;28;20223;-78
2023/07/08 23:46:37;;;;;;;5.63;4.38;;;;;;;;;;4992865;28;20223;-76
2023/07/08 23:49:27;;;;;;;4.57;4.10;;;;;;;;;;5002329;28;20227;-78
2023/07/08 23:51:53;;;;;;;4.75;4.20;;;;;;;;;;5029412;28;20264;-78